Time;durP1;ratioP1;P1;durP2;ratioP2;P2;SDS_P1;SDS_P2;PMS_P1;PMS_P2;Temp;Humidity;BMP_temperature;BMP_pressure;BME280_temperature;BME280_humidity;BME280_pressure;Samples;Min_cycle;Max_cycle;Signal;HPM_P1;HPM_P2
2023/07/16 00:01:25;;;;;;;13.85;9.05;;;;;;;25.87;75.62;95395.31;5070411;28;20224;-74
2023/07/16 00:03:51;;;;;;;18.63;9.25;;;;;;;26.00;74.46;95400.81;5071337;28;20237;-73
2023/07/16 00:06:16;;;;;;;19.73;9.30;;;;;;;26.02;74.28;95397.84;5063686;28;20229;-74
2023/07/16 00:08:42;;;;;;;16.60;9.38;;;;;;;25.99;74.13;95396.53;5051583;28;20224;-74
2023/07/16 00:11:07;;;;;;;16.00;9.23;;;;;;;25.97;74.25;95390.66;5070482;28;20243;-74
2023/07/16 00:13:33;;;;;;;18.92;9.80;;;;;;;25.94;74.50;95390.41;5069308;28;20217;-74
2023/07/16 00:15:58;;;;;;;13.38;8.98;;;;;;;25.90;74.35;95394.75;5058283;28;20694;-74
2023/07/16 00:18:24;;;;;;;14.98;8.25;;;;;;;25.95;74.08;95397.38;5063116;28;20228;-74
2023/07/16 00:20:49;;;;;;;14.88;8.80;;;;;;;25.93;74.35;95395.00;5072000;28;20776;-74
2023/07/16 00:23:15;;;;;;;13.27;8.95;;;;;;;25.93;73.77;95386.13;5038206;28;20236;-74
2023/07/16 00:25:40;;;;;;;16.42;8.18;;;;;;;25.88;73.99;95386.19;5052327;28;20224;-73
2023/07/16 00:28:06;;;;;;;14.77;8.15;;;;;;;25.93;73.87;95389.63;5074423;28;20237;-73
2023/07/16 00:30:31;;;;;;;13.40;8.68;;;;;;;25.82;74.36;95392.66;5035417;28;20229;-74
2023/07/16 00:32:57;;;;;;;18.55;8.35;;;;;;;25.88;73.99;95388.88;5074621;28;20233;-73
2023/07/16 00:35:22;;;;;;;17.02;8.82;;;;;;;25.83;74.32;95388.91;5055362;28;20263;-74
2023/07/16 00:37:48;;;;;;;13.95;8.30;;;;;;;25.75;74.49;95389.53;5057422;28;20629;-75
2023/07/16 00:40:13;;;;;;;12.23;7.78;;;;;;;25.79;74.46;95396.75;5046643;28;20225;-74
2023/07/16 00:42:39;;;;;;;13.38;7.57;;;;;;;25.85;73.85;95392.91;5048775;28;20662;-73
2023/07/16 00:45:08;;;;;;;12.55;7.82;;;;;;;25.90;73.87;95389.38;5037692;28;20300;-74
2023/07/16 00:47:33;;;;;;;16.02;7.68;;;;;;;25.93;73.90;95396.88;5057079;28;20228;-74
2023/07/16 00:49:58;;;;;;;13.80;7.72;;;;;;;25.87;74.22;95385.38;5059964;28;20228;-74
2023/07/16 00:52:24;;;;;;;11.98;7.47;;;;;;;25.79;74.63;95390.56;5038602;28;20589;-74
2023/07/16 00:54:50;;;;;;;10.27;7.43;;;;;;;25.74;74.61;95388.75;5034340;28;20221;-74
2023/07/16 00:57:15;;;;;;;12.52;6.78;;;;;;;25.82;73.80;95384.63;5040879;28;20229;-74
2023/07/16 00:59:41;;;;;;;13.07;6.97;;;;;;;25.79;73.94;95393.25;5038884;28;20239;-74
2023/07/16 01:02:06;;;;;;;13.48;6.75;;;;;;;25.71;74.93;95385.81;5063707;28;20228;-74
2023/07/16 01:04:32;;;;;;;12.05;6.85;;;;;;;25.83;74.11;95386.22;5066800;28;20232;-74
2023/07/16 01:06:58;;;;;;;11.23;6.75;;;;;;;25.75;74.48;95386.84;5055300;28;20228;-73
2023/07/16 01:09:24;;;;;;;14.40;6.93;;;;;;;25.76;74.15;95391.13;5043362;28;20227;-74
2023/07/16 01:11:49;;;;;;;13.43;6.80;;;;;;;25.79;74.11;95377.16;5066487;28;20235;-74
2023/07/16 01:14:16;;;;;;;10.98;7.00;;;;;;;25.72;74.22;95393.56;5062364;28;20236;-74
2023/07/16 01:16:42;;;;;;;12.52;7.00;;;;;;;25.60;75.20;95393.16;5032844;28;20304;-73
2023/07/16 01:19:08;;;;;;;12.70;6.50;;;;;;;25.62;74.68;95392.88;5053630;28;20318;-73
2023/07/16 01:21:57;;;;;;;12.80;6.78;;;;;;;25.51;74.90;95388.69;5070978;28;20216;-75
2023/07/16 01:25:04;;;;;;;11.52;7.03;;;;;;;25.47;75.72;95385.75;5069731;28;20224;-75
2023/07/16 01:27:50;;;;;;;10.60;6.80;;;;;;;25.57;75.08;95391.03;5058545;28;20233;-75
2023/07/16 01:30:16;;;;;;;13.00;6.63;;;;;;;25.61;74.52;95393.94;5055124;28;20232;-75
2023/07/16 01:32:41;;;;;;;11.20;6.72;;;;;;;25.56;74.99;95384.06;5052028;28;20604;-75
2023/07/16 01:35:06;;;;;;;10.60;6.30;;;;;;;25.50;75.23;95389.75;5037286;28;20756;-75
2023/07/16 01:37:32;;;;;;;12.85;6.43;;;;;;;25.57;75.14;95383.00;5036877;28;20235;-74
2023/07/16 01:39:58;;;;;;;13.13;6.70;;;;;;;25.41;75.09;95386.88;5041891;28;20252;-74
2023/07/16 01:42:23;;;;;;;11.57;6.53;;;;;;;25.38;75.32;95387.41;5052999;28;20277;-75
2023/07/16 01:44:49;;;;;;;12.70;7.03;;;;;;;25.29;75.48;95387.19;5071449;28;20221;-74
2023/07/16 01:47:24;;;;;;;10.52;6.65;;;;;;;25.23;75.92;95391.00;5046122;28;20226;-75
2023/07/16 01:49:49;;;;;;;11.02;6.72;;;;;;;25.32;74.99;95396.56;5067881;28;20221;-75
2023/07/16 01:52:15;;;;;;;10.10;6.05;;;;;;;25.27;74.87;95396.59;5045268;28;20302;-74
2023/07/16 01:54:40;;;;;;;9.85;5.85;;;;;;;25.24;75.21;95392.59;5067194;28;20220;-74
2023/07/16 01:57:06;;;;;;;10.40;5.85;;;;;;;25.23;75.58;95396.38;5049963;28;20233;-74
2023/07/16 01:59:31;;;;;;;11.65;5.88;;;;;;;25.26;75.07;95393.13;5051657;28;20239;-74
2023/07/16 02:01:57;;;;;;;10.55;5.75;;;;;;;25.36;74.70;95395.72;5065477;28;20228;-74
2023/07/16 02:04:22;;;;;;;9.93;5.35;;;;;;;25.33;74.64;95398.97;5047244;28;20221;-73
2023/07/16 02:06:48;;;;;;;12.77;5.30;;;;;;;25.14;75.33;95391.88;5053279;28;20223;-74
2023/07/16 02:09:13;;;;;;;10.68;5.85;;;;;;;25.11;75.55;95400.47;5048156;28;20282;-75
2023/07/16 02:11:39;;;;;;;9.70;5.50;;;;;;;25.18;74.98;95388.38;5048546;28;20243;-74
2023/07/16 02:14:04;;;;;;;9.48;5.60;;;;;;;25.15;74.79;95393.50;5057995;28;20232;-74
2023/07/16 02:16:30;;;;;;;9.77;5.50;;;;;;;25.19;74.92;95391.84;5046937;28;20227;-74
2023/07/16 02:18:55;;;;;;;9.77;6.05;;;;;;;25.11;75.32;95392.44;5069851;28;20236;-74
2023/07/16 02:21:20;;;;;;;8.68;6.10;;;;;;;25.18;75.25;95395.59;5070290;28;20237;-74
2023/07/16 02:23:46;;;;;;;10.80;6.18;;;;;;;25.08;74.95;95392.97;5066898;28;20800;-74
2023/07/16 02:26:11;;;;;;;10.88;6.82;;;;;;;25.10;75.08;95391.63;5044440;28;20252;-76
2023/07/16 02:28:37;;;;;;;14.73;6.95;;;;;;;25.12;75.06;95396.72;5033628;28;20232;-75
2023/07/16 02:31:02;;;;;;;12.82;7.05;;;;;;;25.10;75.27;95396.97;5050418;28;20627;-74
2023/07/16 02:33:28;;;;;;;10.02;6.88;;;;;;;25.00;75.50;95402.44;5040586;28;20811;-74
2023/07/16 02:35:53;;;;;;;10.23;7.55;;;;;;;24.95;75.50;95401.66;5044922;28;20233;-74
2023/07/16 02:38:19;;;;;;;13.52;7.78;;;;;;;24.97;75.83;95397.63;5068838;28;20220;-74
2023/07/16 02:40:45;;;;;;;14.50;7.00;;;;;;;24.85;76.47;95401.72;5054265;28;20225;-74
2023/07/16 02:43:11;;;;;;;8.55;6.18;;;;;;;25.00;75.66;95391.72;5053281;28;20315;-74
2023/07/16 02:45:36;;;;;;;8.90;5.75;;;;;;;25.00;75.27;95390.91;5037735;28;20288;-74
2023/07/16 02:48:02;;;;;;;10.45;6.20;;;;;;;24.84;76.53;95402.81;5070765;28;20232;-74
2023/07/16 02:50:28;;;;;;;8.48;6.00;;;;;;;24.81;76.89;95400.66;5069466;28;20227;-75
2023/07/16 02:52:53;;;;;;;9.43;5.82;;;;;;;24.72;77.08;95400.41;5042796;28;20229;-74
2023/07/16 02:55:18;;;;;;;11.60;5.75;;;;;;;24.86;76.17;95397.97;5052148;28;20233;-74
2023/07/16 02:57:44;;;;;;;9.35;6.13;;;;;;;24.72;77.53;95398.53;5060222;28;20224;-74
2023/07/16 03:00:10;;;;;;;8.80;5.82;;;;;;;24.60;78.16;95400.72;5066454;28;20612;-74
2023/07/16 03:02:35;;;;;;;9.20;5.65;;;;;;;24.53;78.21;95396.75;5073446;28;20221;-74
2023/07/16 03:05:01;;;;;;;8.93;5.70;;;;;;;24.42;79.13;95406.72;5063180;28;20291;-75
2023/07/16 03:07:26;;;;;;;10.40;5.85;;;;;;;24.25;80.03;95406.22;5069063;28;20228;-74
2023/07/16 03:09:52;;;;;;;10.75;5.60;;;;;;;24.06;81.09;95405.19;5030413;28;20235;-74
2023/07/16 03:12:17;;;;;;;11.30;5.60;;;;;;;23.95;82.32;95408.97;5046372;28;20245;-75
2023/07/16 03:14:43;;;;;;;8.82;5.80;;;;;;;24.01;82.09;95415.91;5072083;28;20225;-74
2023/07/16 03:17:08;;;;;;;9.00;5.63;;;;;;;24.02;81.86;95412.97;5036715;28;20225;-74
2023/07/16 03:19:34;;;;;;;10.95;5.95;;;;;;;24.18;81.14;95407.59;5042381;28;20697;-74
2023/07/16 03:21:59;;;;;;;10.35;6.05;;;;;;;24.08;80.77;95408.41;5047157;28;20218;-74
2023/07/16 03:24:25;;;;;;;9.15;6.10;;;;;;;24.10;81.27;95408.94;5044580;28;20228;-74
2023/07/16 03:26:50;;;;;;;8.90;5.45;;;;;;;24.00;81.71;95412.41;5072478;28;20220;-73
2023/07/16 03:29:15;;;;;;;8.05;5.50;;;;;;;23.98;82.06;95411.88;5051930;28;20228;-74
2023/07/16 03:31:41;;;;;;;8.95;5.90;;;;;;;24.12;81.48;95411.38;5064974;28;20597;-74
2023/07/16 03:34:06;;;;;;;11.43;5.88;;;;;;;24.14;80.77;95415.38;5055816;28;20246;-75
2023/07/16 03:36:32;;;;;;;9.48;5.95;;;;;;;24.12;80.27;95422.06;5072230;28;20225;-74
2023/07/16 03:38:57;;;;;;;9.85;5.65;;;;;;;23.97;80.41;95421.00;5060805;28;20245;-74
2023/07/16 03:41:23;;;;;;;9.90;6.00;;;;;;;24.05;80.72;95417.75;5064002;28;20239;-75
2023/07/16 03:43:48;;;;;;;8.65;5.50;;;;;;;24.00;81.68;95422.34;5086122;28;20293;-74
2023/07/16 03:46:13;;;;;;;10.13;5.63;;;;;;;24.05;79.94;95428.47;5071016;28;20228;-74
2023/07/16 03:48:39;;;;;;;9.60;5.57;;;;;;;24.08;79.99;95425.28;5052016;28;20236;-74
2023/07/16 03:51:04;;;;;;;10.95;5.95;;;;;;;24.11;80.48;95429.28;5024591;28;20229;-74
2023/07/16 03:53:30;;;;;;;12.50;6.20;;;;;;;23.94;80.82;95437.56;5071965;28;20243;-74
2023/07/16 03:55:55;;;;;;;10.20;5.60;;;;;;;24.06;80.18;95432.78;5069150;28;20252;-75
2023/07/16 03:58:22;;;;;;;7.28;5.65;;;;;;;24.22;79.76;95435.44;5058141;28;20240;-75
2023/07/16 04:00:48;;;;;;;9.15;5.90;;;;;;;24.22;79.59;95438.09;5056776;28;20224;-75
2023/07/16 04:03:13;;;;;;;9.57;5.90;;;;;;;24.19;80.05;95428.75;5069142;28;20808;-74
2023/07/16 04:05:39;;;;;;;10.48;6.22;;;;;;;24.12;79.93;95433.56;5056951;28;20232;-75
2023/07/16 04:08:04;;;;;;;9.88;6.20;;;;;;;24.19;79.55;95434.09;5067286;28;20230;-75
2023/07/16 04:10:29;;;;;;;10.23;5.90;;;;;;;24.17;79.95;95435.44;5053346;28;20225;-74
2023/07/16 04:12:55;;;;;;;9.52;5.97;;;;;;;24.30;79.50;95432.97;5054456;28;20229;-75
2023/07/16 04:15:20;;;;;;;12.32;6.00;;;;;;;24.24;79.97;95433.28;5063764;28;20229;-75
2023/07/16 04:17:46;;;;;;;10.15;5.80;;;;;;;24.18;80.50;95434.34;5071631;28;20220;-75
2023/07/16 04:20:11;;;;;;;9.52;6.07;;;;;;;24.29;80.12;95433.25;5034310;28;20249;-74
2023/07/16 04:22:37;;;;;;;9.10;6.30;;;;;;;24.27;79.77;95444.22;5068099;28;20623;-74
2023/07/16 04:25:03;;;;;;;11.07;6.38;;;;;;;24.22;80.19;95443.44;5064473;28;20680;-75
2023/07/16 04:27:29;;;;;;;10.50;6.00;;;;;;;24.28;80.26;95443.16;5052983;28;20791;-75
2023/07/16 04:29:54;;;;;;;9.27;6.15;;;;;;;24.14;81.63;95450.16;5073223;28;20253;-76
2023/07/16 04:32:20;;;;;;;9.45;5.97;;;;;;;24.01;82.73;95446.13;5065804;28;20224;-75
2023/07/16 04:34:45;;;;;;;13.43;7.25;;;;;;;24.27;80.63;95446.09;5060893;28;20221;-75
2023/07/16 04:37:10;;;;;;;16.40;7.68;;;;;;;24.26;80.65;95444.50;5052036;28;20221;-74
2023/07/16 04:39:36;;;;;;;20.38;9.95;;;;;;;24.25;80.72;95443.69;5042423;28;21016;-75
2023/07/16 04:42:01;;;;;;;15.38;9.02;;;;;;;24.38;80.98;95450.34;5076596;28;20228;-75
2023/07/16 04:44:27;;;;;;;12.45;8.05;;;;;;;24.47;80.49;95452.19;5049418;28;20230;-74
2023/07/16 04:46:52;;;;;;;11.52;6.82;;;;;;;24.28;80.99;95458.41;5054427;28;20236;-75
2023/07/16 04:49:18;;;;;;;10.27;6.80;;;;;;;24.42;80.21;95460.25;5071178;28;20266;-75
2023/07/16 04:51:43;;;;;;;12.43;7.13;;;;;;;24.29;82.28;95455.44;5068122;28;20228;-75
2023/07/16 04:54:08;;;;;;;14.27;6.63;;;;;;;24.38;81.61;95455.72;5072058;28;20227;-75
2023/07/16 04:56:34;;;;;;;8.73;6.18;;;;;;;24.61;80.25;95463.91;5054672;28;20259;-75
2023/07/16 04:58:59;;;;;;;9.95;6.22;;;;;;;24.64;79.50;95459.91;5051062;28;20234;-74
2023/07/16 05:01:26;;;;;;;12.65;6.60;;;;;;;24.55;80.75;95461.53;5039233;28;20232;-75
2023/07/16 05:03:52;;;;;;;8.65;6.07;;;;;;;24.63;79.52;95461.75;5072435;28;20256;-75
2023/07/16 05:06:17;;;;;;;9.82;6.40;;;;;;;24.68;80.07;95461.75;5051285;28;20228;-75
2023/07/16 05:08:43;;;;;;;10.20;6.40;;;;;;;24.73;80.06;95461.72;5070675;28;20548;-75
2023/07/16 05:11:08;;;;;;;10.93;6.00;;;;;;;24.71;80.49;95461.22;5059030;28;20231;-75
2023/07/16 05:13:34;;;;;;;13.20;6.50;;;;;;;24.92;79.72;95458.44;5048045;28;20789;-75
2023/07/16 05:15:59;;;;;;;10.85;6.10;;;;;;;26.62;72.23;95468.91;5063922;28;20597;-75
2023/07/16 05:18:25;;;;;;;11.98;6.20;;;;;;;26.59;71.15;95467.56;5057681;28;20654;-75
2023/07/16 05:20:50;;;;;;;10.30;5.97;;;;;;;25.89;74.13;95465.56;5069241;28;20224;-75
2023/07/16 05:23:16;;;;;;;10.55;6.00;;;;;;;25.81;74.33;95466.19;5068192;28;20260;-75
2023/07/16 05:25:50;;;;;;;10.40;5.85;;;;;;;25.74;75.06;95466.53;5070212;28;20235;-75
2023/07/16 05:28:17;;;;;;;12.25;6.10;;;;;;;25.56;75.56;95469.88;5049470;28;20232;-75
2023/07/16 05:30:42;;;;;;;12.18;5.97;;;;;;;25.41;76.35;95473.41;5068985;28;20669;-75
2023/07/16 05:33:09;;;;;;;9.32;5.68;;;;;;;25.47;75.47;95470.75;5064123;28;20232;-74
2023/07/16 05:35:34;;;;;;;11.32;6.45;;;;;;;26.06;72.78;95469.44;5065912;28;20232;-75
2023/07/16 05:38:00;;;;;;;10.63;6.30;;;;;;;25.92;73.21;95470.38;5068806;28;20224;-75
2023/07/16 05:40:25;;;;;;;10.73;6.05;;;;;;;25.80;73.53;95470.75;5056711;28;20220;-75
2023/07/16 05:42:51;;;;;;;11.35;5.50;;;;;;;26.27;70.88;95475.44;5072831;28;20225;-75
2023/07/16 05:45:16;;;;;;;13.05;5.43;;;;;;;26.03;72.01;95478.06;5029760;28;20221;-75
2023/07/16 05:47:42;;;;;;;11.50;5.70;;;;;;;25.70;74.77;95475.41;5068779;28;20318;-75
2023/07/16 05:50:08;;;;;;;9.07;5.47;;;;;;;25.68;74.77;95480.22;5053587;28;20239;-75
2023/07/16 05:52:33;;;;;;;12.18;5.85;;;;;;;25.59;74.64;95479.22;5062333;28;20319;-74
2023/07/16 05:54:59;;;;;;;9.20;5.88;;;;;;;25.57;76.07;95479.53;5064100;28;21224;-75
2023/07/16 05:57:24;;;;;;;8.77;5.80;;;;;;;25.62;75.30;95489.41;5049701;28;20224;-75
2023/07/16 05:59:49;;;;;;;8.15;6.10;;;;;;;25.76;74.73;95485.81;5057265;28;20311;-74
2023/07/16 06:02:15;;;;;;;8.57;5.85;;;;;;;25.69;75.12;95482.66;5072705;28;20721;-74
2023/07/16 06:04:40;;;;;;;8.60;5.97;;;;;;;25.76;75.37;95483.13;5074459;28;20709;-75
2023/07/16 06:07:06;;;;;;;9.73;6.18;;;;;;;25.81;73.73;95483.09;5054680;28;20220;-75
2023/07/16 06:09:33;;;;;;;13.55;6.20;;;;;;;25.83;74.43;95482.81;5045107;28;20224;-75
2023/07/16 06:11:58;;;;;;;12.25;6.05;;;;;;;25.98;73.33;95482.69;5055193;28;20719;-75
2023/07/16 06:14:24;;;;;;;11.35;6.10;;;;;;;26.03;73.77;95485.31;5056829;28;20233;-75
2023/07/16 06:16:49;;;;;;;9.70;5.80;;;;;;;25.99;74.04;95486.94;5068690;28;20216;-75
2023/07/16 06:19:14;;;;;;;9.13;5.85;;;;;;;26.12;72.45;95488.22;5051444;28;20236;-75
2023/07/16 06:21:40;;;;;;;12.93;5.80;;;;;;;26.12;72.29;95491.69;5065765;28;20216;-75
2023/07/16 06:24:06;;;;;;;7.47;5.55;;;;;;;26.08;72.64;95487.94;5048209;28;20225;-76
2023/07/16 06:26:31;;;;;;;9.43;5.45;;;;;;;26.11;72.71;95484.72;5066768;28;20223;-74
2023/07/16 06:28:57;;;;;;;8.30;5.63;;;;;;;26.10;72.41;95485.78;5048555;28;20297;-75
2023/07/16 06:31:22;;;;;;;7.60;5.90;;;;;;;26.14;72.77;95481.47;5072290;28;20225;-75
2023/07/16 06:33:49;;;;;;;11.65;5.97;;;;;;;26.25;72.08;95474.91;5058823;28;20238;-75
2023/07/16 06:36:15;;;;;;;8.60;6.05;;;;;;;26.36;71.21;95479.13;5062103;28;20741;-75
2023/07/16 06:38:41;;;;;;;10.38;5.80;;;;;;;26.41;71.62;95483.63;5043926;28;20229;-75
2023/07/16 06:41:06;;;;;;;9.77;5.88;;;;;;;26.46;70.47;95472.84;5072852;28;20832;-75
2023/07/16 06:43:31;;;;;;;9.52;5.75;;;;;;;26.41;70.75;95478.25;5044535;28;20221;-75
2023/07/16 06:45:57;;;;;;;9.98;5.90;;;;;;;26.34;71.38;95469.75;5075381;28;20237;-75
2023/07/16 06:48:22;;;;;;;9.48;5.68;;;;;;;26.44;71.28;95473.09;5063563;28;20277;-75
2023/07/16 06:50:49;;;;;;;7.53;5.57;;;;;;;26.46;70.96;95473.63;5074374;28;20232;-75
2023/07/16 06:53:15;;;;;;;12.07;5.97;;;;;;;26.61;70.23;95470.78;5059436;28;20228;-76
2023/07/16 06:55:40;;;;;;;9.38;5.43;;;;;;;26.61;70.10;95472.66;5074662;28;20268;-75
2023/07/16 06:58:13;;;;;;;9.88;6.00;;;;;;;26.52;70.74;95467.13;5047808;28;20293;-75
2023/07/16 07:00:38;;;;;;;10.27;5.75;;;;;;;26.52;71.30;95469.81;5057376;28;20620;-75
2023/07/16 07:03:04;;;;;;;9.90;5.68;;;;;;;26.77;70.93;95473.31;5044482;28;20239;-75
2023/07/16 07:05:29;;;;;;;8.63;5.15;;;;;;;26.90;69.32;95477.97;5061867;28;20230;-74
2023/07/16 07:07:55;;;;;;;10.30;5.50;;;;;;;26.87;68.02;95478.56;5045549;28;20324;-75
2023/07/16 07:10:20;;;;;;;10.10;5.57;;;;;;;26.83;68.52;95475.66;5051568;28;20322;-75
2023/07/16 07:12:46;;;;;;;7.65;5.47;;;;;;;26.74;69.08;95466.59;5064651;28;20301;-75
2023/07/16 07:15:11;;;;;;;8.57;5.35;;;;;;;26.83;69.33;95469.47;5062848;28;20276;-75
2023/07/16 07:17:37;;;;;;;9.05;5.53;;;;;;;26.86;69.46;95471.59;5070307;28;20224;-74
2023/07/16 07:20:03;;;;;;;8.40;5.38;;;;;;;26.99;68.82;95460.91;5051903;28;20298;-75
2023/07/16 07:22:28;;;;;;;10.07;5.30;;;;;;;27.13;68.01;95466.41;5051486;28;20224;-75
2023/07/16 07:24:54;;;;;;;11.05;5.30;;;;;;;27.29;66.93;95463.22;5070407;28;20304;-74
2023/07/16 07:27:19;;;;;;;8.27;5.35;;;;;;;27.36;67.14;95468.22;5060507;28;20229;-75
2023/07/16 07:29:46;;;;;;;6.72;5.18;;;;;;;27.31;66.97;95470.97;5066409;28;20302;-76
2023/07/16 07:32:11;;;;;;;8.85;5.60;;;;;;;27.27;66.20;95473.44;5029631;28;20274;-75
2023/07/16 07:34:38;;;;;;;8.73;5.50;;;;;;;27.26;66.75;95471.03;5064387;28;20236;-76
2023/07/16 07:37:04;;;;;;;14.82;5.65;;;;;;;27.35;67.01;95477.38;5048468;28;20237;-76
2023/07/16 07:39:30;;;;;;;72.93;7.90;;;;;;;27.43;65.95;95470.56;5074578;28;20229;-76
2023/07/16 07:41:55;;;;;;;9.88;6.30;;;;;;;27.39;66.16;95470.38;5055328;28;20616;-75
2023/07/16 07:44:21;;;;;;;10.02;5.80;;;;;;;27.31;67.02;95463.72;5039702;28;20237;-76
2023/07/16 07:46:46;;;;;;;10.25;6.13;;;;;;;27.72;65.58;95463.13;5049385;28;20225;-76
2023/07/16 07:49:12;;;;;;;9.55;5.88;;;;;;;27.72;65.17;95461.25;5066698;28;20229;-76
2023/07/16 07:51:37;;;;;;;9.63;5.78;;;;;;;27.67;66.38;95466.69;5062905;28;20236;-76
2023/07/16 07:54:03;;;;;;;11.68;6.25;;;;;;;27.65;66.38;95470.78;5054917;28;20220;-76
2023/07/16 07:56:28;;;;;;;10.07;5.95;;;;;;;27.77;65.07;95461.16;5055615;28;20216;-76
2023/07/16 07:58:54;;;;;;;11.50;5.90;;;;;;;27.88;65.40;95467.16;5051834;28;20236;-75
2023/07/16 08:01:19;;;;;;;10.13;6.35;;;;;;;27.99;64.61;95457.84;5072142;28;20252;-76
2023/07/16 08:03:44;;;;;;;14.00;6.57;;;;;;;27.99;65.32;95464.03;5061302;28;20223;-76
2023/07/16 08:06:11;;;;;;;11.75;6.55;;;;;;;27.98;64.45;95457.03;5072000;28;20719;-76
2023/07/16 08:08:37;;;;;;;10.13;6.80;;;;;;;28.03;64.91;95465.06;5069028;28;20221;-76
2023/07/16 08:11:02;;;;;;;12.95;6.80;;;;;;;28.06;64.90;95458.28;5052720;28;20245;-75
2023/07/16 08:13:28;;;;;;;13.98;6.15;;;;;;;28.13;65.59;95461.38;5061998;28;20228;-76
2023/07/16 08:15:53;;;;;;;12.80;6.60;;;;;;;28.07;65.66;95457.16;5062947;28;20918;-75
2023/07/16 08:18:19;;;;;;;14.75;7.05;;;;;;;28.15;65.21;95461.06;5075046;28;20237;-76
2023/07/16 08:20:44;;;;;;;12.20;6.93;;;;;;;28.38;64.56;95463.59;5059181;28;20233;-76
2023/07/16 08:23:10;;;;;;;16.38;7.82;;;;;;;28.64;63.89;95455.84;5043125;28;20235;-76
2023/07/16 08:25:35;;;;;;;9.68;6.80;;;;;;;28.52;62.40;95461.72;5072160;28;20224;-76
2023/07/16 08:28:02;;;;;;;11.40;6.60;;;;;;;28.42;63.45;95467.28;5071978;28;20237;-76
2023/07/16 08:30:27;;;;;;;10.75;6.85;;;;;;;28.48;63.66;95465.31;5038483;28;20303;-77
2023/07/16 08:32:52;;;;;;;12.32;6.93;;;;;;;28.60;63.42;95463.75;5029597;28;20240;-76
2023/07/16 08:35:19;;;;;;;9.55;7.00;;;;;;;28.56;63.23;95456.53;5058400;28;20230;-76
2023/07/16 08:37:45;;;;;;;12.10;7.18;;;;;;;28.64;62.38;95469.31;5075518;28;20947;-76
2023/07/16 08:40:11;;;;;;;10.25;6.68;;;;;;;28.83;62.10;95472.72;5055825;28;20401;-76
2023/07/16 08:42:38;;;;;;;11.68;7.00;;;;;;;28.80;62.04;95462.56;5063926;28;20236;-75
2023/07/16 08:45:15;;;;;;;9.45;6.80;;;;;;;28.79;61.26;95463.66;5042724;28;20225;-75
2023/07/16 08:47:40;;;;;;;11.85;7.13;;;;;;;28.76;63.72;95466.94;5051138;28;20260;-75
2023/07/16 08:50:06;;;;;;;10.65;7.60;;;;;;;28.95;63.52;95464.91;5046386;28;20661;-75
2023/07/16 08:52:32;;;;;;;12.50;7.10;;;;;;;29.02;61.21;95453.75;5068807;28;20227;-75
2023/07/16 08:54:57;;;;;;;10.40;7.57;;;;;;;29.06;62.45;95458.22;5055830;28;20299;-75
2023/07/16 08:57:23;;;;;;;13.77;7.15;;;;;;;29.04;61.25;95452.31;5034855;28;20240;-75
2023/07/16 08:59:49;;;;;;;10.07;7.50;;;;;;;29.18;60.81;95452.31;5055769;28;20208;-77
2023/07/16 09:02:19;;;;;;;11.68;7.53;;;;;;;29.16;61.34;95454.53;5037560;28;20827;-76
2023/07/16 09:04:48;;;;;;;12.68;8.02;;;;;;;29.25;60.72;95458.91;5037275;28;20229;-76
2023/07/16 09:07:14;;;;;;;13.90;8.35;;;;;;;29.38;61.50;95451.88;5065962;28;20222;-77
2023/07/16 09:09:39;;;;;;;11.05;7.80;;;;;;;29.49;60.45;95447.84;5042156;28;20229;-75
2023/07/16 09:12:05;;;;;;;12.98;8.07;;;;;;;29.47;61.08;95446.56;5039563;28;20603;-74
2023/07/16 09:14:31;;;;;;;11.32;7.97;;;;;;;29.58;60.65;95440.63;5071470;28;20225;-75
2023/07/16 09:16:56;;;;;;;11.15;7.72;;;;;;;29.66;61.32;95441.78;5067960;28;20239;-74
2023/07/16 09:19:22;;;;;;;14.02;8.20;;;;;;;29.54;59.98;95438.84;5054223;28;20270;-75
2023/07/16 09:21:48;;;;;;;10.82;7.80;;;;;;;29.72;60.95;95441.34;5038329;28;20704;-74
2023/07/16 09:24:14;;;;;;;14.68;8.73;;;;;;;29.99;58.69;95445.84;5065789;28;20236;-75
2023/07/16 09:26:46;;;;;;;14.38;8.50;;;;;;;29.93;59.38;95438.97;5059206;28;20212;-75
2023/07/16 09:29:12;;;;;;;13.43;7.75;;;;;;;30.07;59.40;95436.97;5069823;28;20228;-74
2023/07/16 09:31:37;;;;;;;12.20;8.00;;;;;;;30.16;59.93;95435.16;5054136;28;20284;-74
2023/07/16 09:34:03;;;;;;;13.02;8.60;;;;;;;30.22;59.06;95436.59;5068954;28;20236;-75
2023/07/16 09:36:28;;;;;;;14.80;8.55;;;;;;;30.21;58.79;95437.72;5038649;28;20243;-74
2023/07/16 09:38:54;;;;;;;13.52;8.43;;;;;;;30.21;58.49;95439.63;5042202;28;20733;-74
2023/07/16 09:41:20;;;;;;;12.23;8.63;;;;;;;30.30;59.13;95437.75;5031210;28;20235;-74
2023/07/16 09:43:46;;;;;;;14.32;8.52;;;;;;;30.34;59.28;95433.34;5052183;28;20229;-75
2023/07/16 09:46:11;;;;;;;17.17;8.60;;;;;;;30.35;59.49;95426.84;5048636;28;20224;-74
2023/07/16 09:48:37;;;;;;;15.30;8.93;;;;;;;30.45;59.07;95432.75;5049919;28;20220;-74
2023/07/16 09:51:02;;;;;;;15.90;8.88;;;;;;;30.44;58.93;95425.78;5035360;28;20608;-74
2023/07/16 09:53:28;;;;;;;14.75;8.80;;;;;;;30.45;58.28;95426.56;5065031;28;20236;-74
2023/07/16 09:55:53;;;;;;;14.20;9.23;;;;;;;30.44;58.69;95422.25;5040111;28;20224;-75
2023/07/16 09:58:19;;;;;;;13.00;9.23;;;;;;;30.58;56.07;95421.06;5067591;28;20614;-76
2023/07/16 10:00:45;;;;;;;15.88;9.32;;;;;;;30.69;56.80;95429.66;5054541;28;20307;-77
2023/07/16 10:03:10;;;;;;;12.68;9.07;;;;;;;30.72;58.03;95420.91;5054526;28;20852;-75
2023/07/16 10:05:39;;;;;;;13.60;9.20;;;;;;;30.88;58.13;95422.06;5046230;28;20282;-75
2023/07/16 10:08:05;;;;;;;13.32;9.32;;;;;;;30.88;56.93;95422.06;5039461;28;20221;-75
2023/07/16 10:10:40;;;;;;;12.65;9.10;;;;;;;30.88;57.53;95413.19;5056580;28;20223;-76
2023/07/16 10:13:06;;;;;;;14.30;9.00;;;;;;;31.11;58.08;95414.66;5073814;28;20326;-76
2023/07/16 10:15:32;;;;;;;11.73;8.88;;;;;;;31.11;58.22;95407.34;5060598;28;20360;-75
2023/07/16 10:17:57;;;;;;;19.15;9.65;;;;;;;31.27;58.80;95407.66;5056127;28;20281;-76
2023/07/16 10:20:30;;;;;;;14.52;8.88;;;;;;;31.36;58.05;95411.16;5074790;28;20224;-76
2023/07/16 10:22:55;;;;;;;16.52;9.18;;;;;;;31.45;58.01;95403.91;5076358;28;20244;-75
2023/07/16 10:25:20;;;;;;;17.90;9.05;;;;;;;31.57;57.68;95412.16;5072373;28;20232;-77
2023/07/16 10:27:47;;;;;;;14.32;9.30;;;;;;;31.60;56.58;95402.63;5078033;28;20223;-76
2023/07/16 10:30:12;;;;;;;14.50;9.18;;;;;;;31.52;56.42;95398.81;5060530;28;20223;-76
2023/07/16 10:32:37;;;;;;;14.95;9.68;;;;;;;31.65;56.90;95395.09;5077756;28;20692;-77
2023/07/16 10:35:04;;;;;;;18.33;9.32;;;;;;;31.78;56.54;95396.06;5074126;28;20319;-76
2023/07/16 10:37:30;;;;;;;16.77;9.95;;;;;;;31.82;55.08;95400.50;5047271;28;20229;-75
2023/07/16 10:39:57;;;;;;;17.35;9.75;;;;;;;31.83;54.60;95393.97;5072244;28;20860;-78
2023/07/16 10:42:23;;;;;;;14.93;9.23;;;;;;;31.87;53.93;95381.38;5063838;28;20280;-77
2023/07/16 10:44:53;;;;;;;17.17;9.27;;;;;;;32.03;53.79;95394.44;5062924;28;20225;-79
2023/07/16 10:47:51;;;;;;;18.02;9.85;;;;;;;32.03;54.18;95394.44;5077119;28;20225;-76
2023/07/16 10:50:17;;;;;;;12.82;9.30;;;;;;;32.11;55.19;95399.00;5080233;28;20667;-77
2023/07/16 10:52:42;;;;;;;17.15;9.30;;;;;;;32.08;54.60;95396.94;5055907;28;20285;-76
2023/07/16 10:55:08;;;;;;;18.23;9.73;;;;;;;31.92;54.11;95392.03;5080598;28;20299;-77
2023/07/16 10:57:33;;;;;;;20.77;9.57;;;;;;;32.00;52.77;95395.06;5080250;28;20229;-77
2023/07/16 11:00:00;;;;;;;16.33;9.75;;;;;;;31.93;54.59;95382.00;5083265;28;20585;-76
2023/07/16 11:02:25;;;;;;;15.15;9.65;;;;;;;32.19;53.10;95390.06;5083732;28;20231;-75
2023/07/16 11:04:53;;;;;;;16.05;9.27;;;;;;;32.26;54.99;95374.09;5053057;28;20220;-77
2023/07/16 11:07:19;;;;;;;16.98;9.50;;;;;;;32.31;52.72;95380.16;5067491;28;20235;-75
2023/07/16 11:09:46;;;;;;;18.25;9.27;;;;;;;32.16;54.48;95375.25;5062545;28;20225;-77
2023/07/16 11:12:12;;;;;;;19.23;9.70;;;;;;;32.37;53.67;95380.75;5068765;28;20227;-77
2023/07/16 11:14:41;;;;;;;15.88;9.55;;;;;;;32.46;53.39;95374.16;5054691;28;20243;-77
2023/07/16 11:17:08;;;;;;;17.10;9.50;;;;;;;32.41;51.28;95376.28;5052908;28;20239;-78
2023/07/16 11:19:34;;;;;;;14.52;9.35;;;;;;;32.39;50.79;95365.75;5084234;28;20248;-77
2023/07/16 11:22:01;;;;;;;15.98;9.90;;;;;;;32.20;51.12;95368.06;5081570;28;20228;-76